sensor_id;sensor_type;location;lat;lon;timestamp;pressure;altitude;pressure_sealevel;temperature;humidity
73981;BME280;62348;51.412;5.436;2022-08-19T00:01:50;101191.72;;;18.25;79.83
73981;BME280;62348;51.412;5.436;2022-08-19T00:04:18;101190.88;;;18.25;79.31
73981;BME280;62348;51.412;5.436;2022-08-19T00:06:46;101189.78;;;18.26;79.66
73981;BME280;62348;51.412;5.436;2022-08-19T00:09:14;101200.22;;;18.24;79.62
73981;BME280;62348;51.412;5.436;2022-08-19T00:11:41;101195.97;;;18.18;79.16
73981;BME280;62348;51.412;5.436;2022-08-19T00:14:08;101197.56;;;18.19;79.37
73981;BME280;62348;51.412;5.436;2022-08-19T00:16:39;101200.41;;;18.13;79.63
73981;BME280;62348;51.412;5.436;2022-08-19T00:19:07;101198.59;;;18.09;79.13
73981;BME280;62348;51.412;5.436;2022-08-19T00:21:32;101196.34;;;18.11;79.32
73981;BME280;62348;51.412;5.436;2022-08-19T00:24:01;101194.41;;;18.11;79.30
73981;BME280;62348;51.412;5.436;2022-08-19T00:26:28;101206.06;;;18.03;79.14
73981;BME280;62348;51.412;5.436;2022-08-19T00:28:54;101204.75;;;18.01;79.36
73981;BME280;62348;51.412;5.436;2022-08-19T00:31:19;101203.94;;;18.00;79.17
73981;BME280;62348;51.412;5.436;2022-08-19T00:33:46;101208.00;;;18.03;79.29
73981;BME280;62348;51.412;5.436;2022-08-19T00:36:13;101206.16;;;17.98;79.38
73981;BME280;62348;51.412;5.436;2022-08-19T00:38:39;101200.69;;;17.98;79.40
73981;BME280;62348;51.412;5.436;2022-08-19T00:41:11;101202.63;;;17.98;79.32
73981;BME280;62348;51.412;5.436;2022-08-19T00:43:37;101206.78;;;17.95;79.00
73981;BME280;62348;51.412;5.436;2022-08-19T00:46:04;101206.28;;;17.93;78.93
73981;BME280;62348;51.412;5.436;2022-08-19T00:48:31;101206.56;;;17.91;79.46
73981;BME280;62348;51.412;5.436;2022-08-19T00:50:57;101199.16;;;17.92;78.93
73981;BME280;62348;51.412;5.436;2022-08-19T00:53:26;101208.28;;;17.87;79.24
73981;BME280;62348;51.412;5.436;2022-08-19T00:55:55;101204.22;;;17.85;79.48
73981;BME280;62348;51.412;5.436;2022-08-19T00:58:26;101205.41;;;17.79;79.39
73981;BME280;62348;51.412;5.436;2022-08-19T01:00:52;101207.03;;;17.80;79.69
73981;BME280;62348;51.412;5.436;2022-08-19T01:03:20;101208.63;;;17.81;79.67
73981;BME280;62348;51.412;5.436;2022-08-19T01:05:47;101205.41;;;17.79;79.87
73981;BME280;62348;51.412;5.436;2022-08-19T01:08:15;101200.44;;;17.81;80.02
73981;BME280;62348;51.412;5.436;2022-08-19T01:10:47;101202.50;;;17.89;80.11
73981;BME280;62348;51.412;5.436;2022-08-19T01:13:16;101203.34;;;17.89;80.31
73981;BME280;62348;51.412;5.436;2022-08-19T01:15:46;101193.91;;;17.95;80.13
73981;BME280;62348;51.412;5.436;2022-08-19T01:18:15;101197.16;;;17.98;80.92
73981;BME280;62348;51.412;5.436;2022-08-19T01:20:43;101188.13;;;17.97;80.27
73981;BME280;62348;51.412;5.436;2022-08-19T01:23:10;101191.69;;;17.98;80.66
73981;BME280;62348;51.412;5.436;2022-08-19T01:25:50;101190.78;;;18.02;80.04
73981;BME280;62348;51.412;5.436;2022-08-19T01:28:21;101192.28;;;17.94;80.56
73981;BME280;62348;51.412;5.436;2022-08-19T01:30:48;101189.88;;;17.93;80.86
73981;BME280;62348;51.412;5.436;2022-08-19T01:33:14;101195.53;;;17.97;80.74
73981;BME280;62348;51.412;5.436;2022-08-19T01:35:40;101199.59;;;17.99;80.92
73981;BME280;62348;51.412;5.436;2022-08-19T01:38:09;101202.03;;;18.01;81.09
73981;BME280;62348;51.412;5.436;2022-08-19T01:40:43;101202.31;;;17.99;81.01
73981;BME280;62348;51.412;5.436;2022-08-19T01:43:09;101193.63;;;17.97;80.77
73981;BME280;62348;51.412;5.436;2022-08-19T01:45:35;101199.28;;;18.01;81.09
73981;BME280;62348;51.412;5.436;2022-08-19T01:48:01;101192.69;;;18.02;80.92
73981;BME280;62348;51.412;5.436;2022-08-19T01:50:26;101199.38;;;17.95;81.04
73981;BME280;62348;51.412;5.436;2022-08-19T01:52:53;101197.88;;;18.03;80.86
73981;BME280;62348;51.412;5.436;2022-08-19T01:55:21;101195.13;;;18.03;80.99
73981;BME280;62348;51.412;5.436;2022-08-19T01:57:50;101205.06;;;17.99;81.21
73981;BME280;62348;51.412;5.436;2022-08-19T02:00:19;101208.91;;;17.98;81.64
73981;BME280;62348;51.412;5.436;2022-08-19T02:02:44;101206.28;;;17.93;81.39
73981;BME280;62348;51.412;5.436;2022-08-19T02:05:11;101213.34;;;17.94;81.05
73981;BME280;62348;51.412;5.436;2022-08-19T02:07:37;101206.06;;;17.89;82.24
73981;BME280;62348;51.412;5.436;2022-08-19T02:10:06;101218.03;;;17.93;81.36
73981;BME280;62348;51.412;5.436;2022-08-19T02:12:32;101217.81;;;17.90;81.92
73981;BME280;62348;51.412;5.436;2022-08-19T02:14:59;101221.81;;;17.79;80.85
73981;BME280;62348;51.412;5.436;2022-08-19T02:17:26;101223.66;;;17.83;81.85
73981;BME280;62348;51.412;5.436;2022-08-19T02:19:54;101221.22;;;17.82;81.39
73981;BME280;62348;51.412;5.436;2022-08-19T02:22:19;101213.59;;;17.79;81.58
73981;BME280;62348;51.412;5.436;2022-08-19T02:24:45;101224.47;;;17.84;81.82
73981;BME280;62348;51.412;5.436;2022-08-19T02:27:11;101235.03;;;17.71;80.77
73981;BME280;62348;51.412;5.436;2022-08-19T02:29:36;101228.78;;;17.71;80.58
73981;BME280;62348;51.412;5.436;2022-08-19T02:32:02;101229.75;;;17.61;81.20
73981;BME280;62348;51.412;5.436;2022-08-19T02:34:29;101229.75;;;17.61;81.08
73981;BME280;62348;51.412;5.436;2022-08-19T02:36:55;101232.28;;;17.58;81.29
73981;BME280;62348;51.412;5.436;2022-08-19T02:39:20;101229.03;;;17.55;80.47
73981;BME280;62348;51.412;5.436;2022-08-19T02:41:45;101235.59;;;17.54;81.25
73981;BME280;62348;51.412;5.436;2022-08-19T02:44:11;101240.34;;;17.49;81.29
73981;BME280;62348;51.412;5.436;2022-08-19T02:46:37;101242.03;;;17.45;81.26
73981;BME280;62348;51.412;5.436;2022-08-19T02:49:05;101237.47;;;17.40;81.37
73981;BME280;62348;51.412;5.436;2022-08-19T02:51:36;101241.03;;;17.41;81.35
73981;BME280;62348;51.412;5.436;2022-08-19T02:54:03;101242.66;;;17.42;81.08
73981;BME280;62348;51.412;5.436;2022-08-19T02:56:29;101237.78;;;17.39;81.33
73981;BME280;62348;51.412;5.436;2022-08-19T02:58:56;101236.34;;;17.41;81.34
73981;BME280;62348;51.412;5.436;2022-08-19T03:01:30;101227.34;;;17.41;81.04
73981;BME280;62348;51.412;5.436;2022-08-19T03:03:58;101229.19;;;17.45;80.45
73981;BME280;62348;51.412;5.436;2022-08-19T03:06:24;101235.38;;;17.51;80.54
73981;BME280;62348;51.412;5.436;2022-08-19T03:08:51;101235.09;;;17.52;80.63
73981;BME280;62348;51.412;5.436;2022-08-19T03:11:28;101240.03;;;17.50;80.59
73981;BME280;62348;51.412;5.436;2022-08-19T03:13:55;101238.13;;;17.51;80.62
73981;BME280;62348;51.412;5.436;2022-08-19T03:16:22;101242.25;;;17.48;81.50
73981;BME280;62348;51.412;5.436;2022-08-19T03:18:48;101240.94;;;17.46;80.58
73981;BME280;62348;51.412;5.436;2022-08-19T03:21:16;101237.81;;;17.52;80.53
73981;BME280;62348;51.412;5.436;2022-08-19T03:23:42;101233.78;;;17.50;80.40
73981;BME280;62348;51.412;5.436;2022-08-19T03:26:07;101228.66;;;17.43;80.59
73981;BME280;62348;51.412;5.436;2022-08-19T03:28:33;101238.28;;;17.41;80.40
73981;BME280;62348;51.412;5.436;2022-08-19T03:31:12;101240.50;;;17.39;80.56
73981;BME280;62348;51.412;5.436;2022-08-19T03:33:38;101240.34;;;17.30;80.61
73981;BME280;62348;51.412;5.436;2022-08-19T03:36:08;101242.28;;;17.29;80.97
73981;BME280;62348;51.412;5.436;2022-08-19T03:38:43;101226.19;;;17.28;80.54
73981;BME280;62348;51.412;5.436;2022-08-19T03:41:17;101226.69;;;17.30;80.63
73981;BME280;62348;51.412;5.436;2022-08-19T03:43:44;101226.69;;;17.30;80.51
73981;BME280;62348;51.412;5.436;2022-08-19T03:46:16;101224.28;;;17.28;81.34
73981;BME280;62348;51.412;5.436;2022-08-19T03:48:43;101233.06;;;17.25;80.76
73981;BME280;62348;51.412;5.436;2022-08-19T03:51:20;101225.66;;;17.26;80.81
73981;BME280;62348;51.412;5.436;2022-08-19T03:53:47;101226.56;;;17.21;80.50
73981;BME280;62348;51.412;5.436;2022-08-19T03:56:12;101228.78;;;17.19;81.60
73981;BME280;62348;51.412;5.436;2022-08-19T03:58:38;101230.78;;;17.13;81.49
73981;BME280;62348;51.412;5.436;2022-08-19T04:01:08;101234.31;;;17.14;81.64
73981;BME280;62348;51.412;5.436;2022-08-19T04:03:35;101234.09;;;17.10;82.15
73981;BME280;62348;51.412;5.436;2022-08-19T04:06:19;101231.41;;;17.05;81.12
73981;BME280;62348;51.412;5.436;2022-08-19T04:08:47;101229.53;;;17.06;81.95
73981;BME280;62348;51.412;5.436;2022-08-19T04:11:17;101223.53;;;17.04;81.46
73981;BME280;62348;51.412;5.436;2022-08-19T04:13:42;101224.94;;;17.01;82.68
73981;BME280;62348;51.412;5.436;2022-08-19T04:16:09;101220.81;;;17.04;82.60
73981;BME280;62348;51.412;5.436;2022-08-19T04:18:37;101226.56;;;17.02;82.43
73981;BME280;62348;51.412;5.436;2022-08-19T04:21:03;101234.47;;;17.04;82.38
73981;BME280;62348;51.412;5.436;2022-08-19T04:23:28;101221.63;;;17.04;82.28
73981;BME280;62348;51.412;5.436;2022-08-19T04:25:54;101221.16;;;16.97;81.75
73981;BME280;62348;51.412;5.436;2022-08-19T04:28:20;101221.41;;;17.01;82.14
73981;BME280;62348;51.412;5.436;2022-08-19T04:30:51;101218.81;;;16.90;82.47
73981;BME280;62348;51.412;5.436;2022-08-19T04:33:18;101223.44;;;16.90;82.05
73981;BME280;62348;51.412;5.436;2022-08-19T04:35:47;101222.34;;;16.91;82.22
73981;BME280;62348;51.412;5.436;2022-08-19T04:38:14;101217.69;;;16.91;81.94
73981;BME280;62348;51.412;5.436;2022-08-19T04:40:45;101212.63;;;16.79;82.40
73981;BME280;62348;51.412;5.436;2022-08-19T04:43:30;101215.34;;;16.85;82.38
73981;BME280;62348;51.412;5.436;2022-08-19T04:45:57;101212.47;;;16.71;82.97
73981;BME280;62348;51.412;5.436;2022-08-19T04:48:23;101215.38;;;16.79;82.98
73981;BME280;62348;51.412;5.436;2022-08-19T04:50:56;101214.22;;;16.86;82.71
73981;BME280;62348;51.412;5.436;2022-08-19T04:53:26;101218.38;;;16.78;82.78
73981;BME280;62348;51.412;5.436;2022-08-19T04:55:56;101229.28;;;16.83;82.17
73981;BME280;62348;51.412;5.436;2022-08-19T04:58:24;101235.00;;;16.82;82.35
73981;BME280;62348;51.412;5.436;2022-08-19T05:00:50;101237.22;;;16.79;82.09
73981;BME280;62348;51.412;5.436;2022-08-19T05:03:15;101235.91;;;16.77;81.92
73981;BME280;62348;51.412;5.436;2022-08-19T05:05:43;101237.00;;;16.76;82.19
73981;BME280;62348;51.412;5.436;2022-08-19T05:08:10;101241.66;;;16.75;81.73
73981;BME280;62348;51.412;5.436;2022-08-19T05:10:39;101250.41;;;16.72;82.25
73981;BME280;62348;51.412;5.436;2022-08-19T05:13:04;101241.97;;;16.69;82.72
73981;BME280;62348;51.412;5.436;2022-08-19T05:15:30;101252.84;;;16.74;82.23
73981;BME280;62348;51.412;5.436;2022-08-19T05:17:56;101252.56;;;16.75;82.57
73981;BME280;62348;51.412;5.436;2022-08-19T05:20:40;101252.03;;;16.73;82.09
73981;BME280;62348;51.412;5.436;2022-08-19T05:23:23;101264.56;;;16.74;81.70
73981;BME280;62348;51.412;5.436;2022-08-19T05:25:50;101265.19;;;16.71;81.98
73981;BME280;62348;51.412;5.436;2022-08-19T05:28:17;101271.97;;;16.74;82.33
73981;BME280;62348;51.412;5.436;2022-08-19T05:30:43;101280.44;;;16.72;82.52
73981;BME280;62348;51.412;5.436;2022-08-19T05:33:10;101287.22;;;16.75;82.31
73981;BME280;62348;51.412;5.436;2022-08-19T05:35:40;101288.06;;;16.75;82.32
73981;BME280;62348;51.412;5.436;2022-08-19T05:38:07;101282.88;;;16.74;82.77
73981;BME280;62348;51.412;5.436;2022-08-19T05:40:37;101291.53;;;16.81;82.06
73981;BME280;62348;51.412;5.436;2022-08-19T05:43:04;101286.66;;;16.78;82.11
73981;BME280;62348;51.412;5.436;2022-08-19T05:45:30;101290.16;;;16.84;82.26
73981;BME280;62348;51.412;5.436;2022-08-19T05:47:56;101298.31;;;16.89;81.97
73981;BME280;62348;51.412;5.436;2022-08-19T05:50:24;101297.19;;;16.90;82.34
73981;BME280;62348;51.412;5.436;2022-08-19T05:52:50;101286.78;;;16.92;82.21
73981;BME280;62348;51.412;5.436;2022-08-19T05:55:16;101282.38;;;16.96;81.94
73981;BME280;62348;51.412;5.436;2022-08-19T05:57:42;101285.53;;;17.03;82.38
73981;BME280;62348;51.412;5.436;2022-08-19T06:00:07;101282.47;;;17.10;82.13
73981;BME280;62348;51.412;5.436;2022-08-19T06:02:36;101276.72;;;17.11;82.02
73981;BME280;62348;51.412;5.436;2022-08-19T06:05:03;101282.91;;;17.17;81.70
73981;BME280;62348;51.412;5.436;2022-08-19T06:07:28;101274.34;;;17.24;81.36
73981;BME280;62348;51.412;5.436;2022-08-19T06:09:54;101272.34;;;17.29;81.54
73981;BME280;62348;51.412;5.436;2022-08-19T06:12:20;101269.59;;;17.29;81.36
73981;BME280;62348;51.412;5.436;2022-08-19T06:14:51;101271.47;;;17.34;80.81
73981;BME280;62348;51.412;5.436;2022-08-19T06:17:17;101269.75;;;17.38;80.83
73981;BME280;62348;51.412;5.436;2022-08-19T06:19:43;101267.78;;;17.44;80.63
73981;BME280;62348;51.412;5.436;2022-08-19T06:22:09;101278.47;;;17.59;80.42
73981;BME280;62348;51.412;5.436;2022-08-19T06:24:36;101275.56;;;17.69;80.40
73981;BME280;62348;51.412;5.436;2022-08-19T06:27:03;101271.31;;;17.77;80.92
73981;BME280;62348;51.412;5.436;2022-08-19T06:29:31;101277.00;;;17.81;80.35
73981;BME280;62348;51.412;5.436;2022-08-19T06:31:59;101268.50;;;17.82;79.88
73981;BME280;62348;51.412;5.436;2022-08-19T06:34:26;101266.97;;;17.95;79.23
73981;BME280;62348;51.412;5.436;2022-08-19T06:36:53;101269.72;;;18.09;79.52
73981;BME280;62348;51.412;5.436;2022-08-19T06:39:25;101278.28;;;18.21;79.22
73981;BME280;62348;51.412;5.436;2022-08-19T06:41:55;101269.88;;;18.31;78.48
73981;BME280;62348;51.412;5.436;2022-08-19T06:44:24;101277.56;;;18.43;79.59
73981;BME280;62348;51.412;5.436;2022-08-19T06:46:52;101280.72;;;18.50;79.02
73981;BME280;62348;51.412;5.436;2022-08-19T06:49:17;101277.78;;;18.47;79.01
73981;BME280;62348;51.412;5.436;2022-08-19T06:51:44;101277.38;;;18.53;78.51
73981;BME280;62348;51.412;5.436;2022-08-19T06:54:12;101279.91;;;18.64;78.89
73981;BME280;62348;51.412;5.436;2022-08-19T06:56:38;101266.31;;;18.72;78.41
73981;BME280;62348;51.412;5.436;2022-08-19T06:59:12;101268.06;;;18.82;78.74
73981;BME280;62348;51.412;5.436;2022-08-19T07:01:42;101266.75;;;18.94;78.09
73981;BME280;62348;51.412;5.436;2022-08-19T07:04:09;101270.97;;;19.00;77.96
73981;BME280;62348;51.412;5.436;2022-08-19T07:06:36;101271.19;;;19.03;77.20
73981;BME280;62348;51.412;5.436;2022-08-19T07:09:02;101268.28;;;19.22;78.03
73981;BME280;62348;51.412;5.436;2022-08-19T07:11:27;101267.84;;;19.29;77.38
73981;BME280;62348;51.412;5.436;2022-08-19T07:13:53;101274.03;;;19.35;77.20
73981;BME280;62348;51.412;5.436;2022-08-19T07:16:20;101275.97;;;19.34;76.47
73981;BME280;62348;51.412;5.436;2022-08-19T07:18:48;101283.00;;;19.26;76.40
73981;BME280;62348;51.412;5.436;2022-08-19T07:21:24;101278.50;;;19.30;76.75
73981;BME280;62348;51.412;5.436;2022-08-19T07:23:53;101282.25;;;19.35;77.19
73981;BME280;62348;51.412;5.436;2022-08-19T07:28:48;101287.44;;;19.36;76.25
73981;BME280;62348;51.412;5.436;2022-08-19T07:31:21;101288.94;;;19.42;75.92
73981;BME280;62348;51.412;5.436;2022-08-19T07:33:49;101288.41;;;19.54;76.96
73981;BME280;62348;51.412;5.436;2022-08-19T07:36:26;101285.53;;;19.59;76.52
73981;BME280;62348;51.412;5.436;2022-08-19T07:38:55;101289.44;;;19.67;75.36
73981;BME280;62348;51.412;5.436;2022-08-19T07:41:23;101294.09;;;19.80;75.70
73981;BME280;62348;51.412;5.436;2022-08-19T07:43:49;101289.41;;;20.03;75.33
73981;BME280;62348;51.412;5.436;2022-08-19T07:46:15;101296.56;;;20.13;75.27
73981;BME280;62348;51.412;5.436;2022-08-19T07:48:43;101305.13;;;20.12;74.78
73981;BME280;62348;51.412;5.436;2022-08-19T07:51:13;101314.53;;;20.19;75.22
73981;BME280;62348;51.412;5.436;2022-08-19T07:53:39;101306.91;;;20.16;74.89
73981;BME280;62348;51.412;5.436;2022-08-19T07:56:05;101318.16;;;20.06;74.66
73981;BME280;62348;51.412;5.436;2022-08-19T07:58:33;101318.09;;;19.97;74.89
73981;BME280;62348;51.412;5.436;2022-08-19T08:00:59;101313.75;;;19.96;75.41
73981;BME280;62348;51.412;5.436;2022-08-19T08:03:26;101317.06;;;19.84;75.05
73981;BME280;62348;51.412;5.436;2022-08-19T08:06:13;101320.09;;;19.83;75.25
73981;BME280;62348;51.412;5.436;2022-08-19T08:08:58;101320.09;;;19.83;74.43
73981;BME280;62348;51.412;5.436;2022-08-19T08:11:36;101317.88;;;19.85;74.40
73981;BME280;62348;51.412;5.436;2022-08-19T08:14:01;101328.66;;;19.81;74.23
73981;BME280;62348;51.412;5.436;2022-08-19T08:16:28;101321.66;;;19.75;74.63
73981;BME280;62348;51.412;5.436;2022-08-19T08:18:56;101331.31;;;19.73;75.22
73981;BME280;62348;51.412;5.436;2022-08-19T08:21:22;101339.25;;;19.74;74.98
73981;BME280;62348;51.412;5.436;2022-08-19T08:23:47;101333.75;;;19.74;74.77
73981;BME280;62348;51.412;5.436;2022-08-19T08:26:13;101339.84;;;19.71;74.58
73981;BME280;62348;51.412;5.436;2022-08-19T08:28:39;101337.41;;;19.69;75.04
73981;BME280;62348;51.412;5.436;2022-08-19T08:31:05;101330.19;;;19.74;74.55
73981;BME280;62348;51.412;5.436;2022-08-19T08:33:30;101339.44;;;19.78;74.83
73981;BME280;62348;51.412;5.436;2022-08-19T08:35:56;101347.53;;;19.83;75.61
73981;BME280;62348;51.412;5.436;2022-08-19T08:38:21;101354.13;;;19.82;75.20
73981;BME280;62348;51.412;5.436;2022-08-19T08:40:53;101354.59;;;19.75;74.95
73981;BME280;62348;51.412;5.436;2022-08-19T08:43:34;101357.69;;;19.82;74.99
73981;BME280;62348;51.412;5.436;2022-08-19T08:46:04;101357.53;;;19.79;75.11
73981;BME280;62348;51.412;5.436;2022-08-19T08:48:32;101359.41;;;19.92;75.36
73981;BME280;62348;51.412;5.436;2022-08-19T08:51:02;101356.28;;;20.07;74.06
73981;BME280;62348;51.412;5.436;2022-08-19T08:53:29;101348.63;;;20.27;72.65
73981;BME280;62348;51.412;5.436;2022-08-19T08:55:57;101341.16;;;20.50;72.81
73981;BME280;62348;51.412;5.436;2022-08-19T08:58:36;101343.34;;;20.62;73.01
73981;BME280;62348;51.412;5.436;2022-08-19T09:01:09;101346.66;;;20.81;71.39
73981;BME280;62348;51.412;5.436;2022-08-19T09:03:37;101340.69;;;20.88;70.69
73981;BME280;62348;51.412;5.436;2022-08-19T09:06:12;101342.13;;;20.77;71.17
73981;BME280;62348;51.412;5.436;2022-08-19T09:09:02;101344.69;;;20.73;71.87
73981;BME280;62348;51.412;5.436;2022-08-19T09:14:30;101358.97;;;20.53;71.66
73981;BME280;62348;51.412;5.436;2022-08-19T09:16:57;101358.59;;;20.45;71.17
73981;BME280;62348;51.412;5.436;2022-08-19T09:19:23;101354.69;;;20.38;72.56
73981;BME280;62348;51.412;5.436;2022-08-19T09:21:48;101356.25;;;20.30;72.42
73981;BME280;62348;51.412;5.436;2022-08-19T09:24:15;101355.88;;;20.23;72.61
73981;BME280;62348;51.412;5.436;2022-08-19T09:26:40;101361.88;;;20.25;72.26
73981;BME280;62348;51.412;5.436;2022-08-19T09:29:09;101359.56;;;20.18;72.00
73981;BME280;62348;51.412;5.436;2022-08-19T09:31:36;101362.31;;;20.18;72.68
73981;BME280;62348;51.412;5.436;2022-08-19T09:34:01;101358.94;;;20.21;72.49
73981;BME280;62348;51.412;5.436;2022-08-19T09:36:28;101359.94;;;20.25;73.18
73981;BME280;62348;51.412;5.436;2022-08-19T09:38:55;101362.50;;;20.22;72.70
73981;BME280;62348;51.412;5.436;2022-08-19T09:41:23;101369.75;;;20.18;72.78
73981;BME280;62348;51.412;5.436;2022-08-19T09:43:51;101374.03;;;20.10;74.15
73981;BME280;62348;51.412;5.436;2022-08-19T09:46:18;101372.25;;;20.05;72.83
73981;BME280;62348;51.412;5.436;2022-08-19T09:48:46;101367.69;;;20.01;72.73
73981;BME280;62348;51.412;5.436;2022-08-19T09:51:15;101367.19;;;19.99;72.38
73981;BME280;62348;51.412;5.436;2022-08-19T09:53:43;101367.69;;;20.01;72.96
73981;BME280;62348;51.412;5.436;2022-08-19T09:56:08;101371.09;;;20.06;73.43
73981;BME280;62348;51.412;5.436;2022-08-19T09:58:34;101369.34;;;20.11;73.53
73981;BME280;62348;51.412;5.436;2022-08-19T10:01:01;101377.09;;;20.08;73.48
73981;BME280;62348;51.412;5.436;2022-08-19T10:03:29;101367.75;;;20.09;73.08
73981;BME280;62348;51.412;5.436;2022-08-19T10:06:00;101378.63;;;20.15;73.32
73981;BME280;62348;51.412;5.436;2022-08-19T10:08:29;101372.66;;;20.21;73.85
73981;BME280;62348;51.412;5.436;2022-08-19T10:10:56;101372.56;;;20.26;72.87
73981;BME280;62348;51.412;5.436;2022-08-19T10:13:24;101375.72;;;20.20;73.89
73981;BME280;62348;51.412;5.436;2022-08-19T10:15:52;101371.41;;;20.27;73.51
73981;BME280;62348;51.412;5.436;2022-08-19T10:18:19;101370.97;;;20.34;73.42
73981;BME280;62348;51.412;5.436;2022-08-19T10:20:47;101373.72;;;20.34;73.64
73981;BME280;62348;51.412;5.436;2022-08-19T10:23:13;101374.84;;;20.33;72.85
73981;BME280;62348;51.412;5.436;2022-08-19T10:25:39;101366.28;;;20.35;72.38
73981;BME280;62348;51.412;5.436;2022-08-19T10:28:04;101375.66;;;20.34;73.45
73981;BME280;62348;51.412;5.436;2022-08-19T10:30:31;101370.47;;;20.32;72.74
73981;BME280;62348;51.412;5.436;2022-08-19T10:32:57;101368.66;;;20.27;72.46
73981;BME280;62348;51.412;5.436;2022-08-19T10:35:22;101373.66;;;20.25;72.33
73981;BME280;62348;51.412;5.436;2022-08-19T10:37:49;101371.72;;;20.26;72.33
73981;BME280;62348;51.412;5.436;2022-08-19T10:40:15;101371.38;;;20.19;73.08
73981;BME280;62348;51.412;5.436;2022-08-19T10:42:40;101370.53;;;20.18;73.37
73981;BME280;62348;51.412;5.436;2022-08-19T10:45:06;101374.63;;;20.21;73.02
73981;BME280;62348;51.412;5.436;2022-08-19T10:47:33;101367.78;;;20.18;72.40
73981;BME280;62348;51.412;5.436;2022-08-19T10:49:59;101368.63;;;20.19;71.98
73981;BME280;62348;51.412;5.436;2022-08-19T10:52:46;101366.38;;;20.21;72.20
73981;BME280;62348;51.412;5.436;2022-08-19T10:55:12;101367.66;;;20.23;71.75
73981;BME280;62348;51.412;5.436;2022-08-19T10:57:56;101358.50;;;20.28;71.74
73981;BME280;62348;51.412;5.436;2022-08-19T11:00:23;101360.63;;;20.31;71.41
73981;BME280;62348;51.412;5.436;2022-08-19T11:02:49;101358.53;;;20.37;71.60
73981;BME280;62348;51.412;5.436;2022-08-19T11:05:14;101350.81;;;20.39;71.24
73981;BME280;62348;51.412;5.436;2022-08-19T11:07:41;101355.56;;;20.56;72.15
73981;BME280;62348;51.412;5.436;2022-08-19T11:10:09;101347.44;;;20.73;71.25
73981;BME280;62348;51.412;5.436;2022-08-19T11:12:38;101349.13;;;20.92;70.88
73981;BME280;62348;51.412;5.436;2022-08-19T11:15:08;101348.34;;;21.09;70.71
73981;BME280;62348;51.412;5.436;2022-08-19T11:17:37;101349.50;;;21.16;69.01
73981;BME280;62348;51.412;5.436;2022-08-19T11:20:06;101349.84;;;21.23;70.38
73981;BME280;62348;51.412;5.436;2022-08-19T11:22:32;101350.19;;;21.31;69.95
73981;BME280;62348;51.412;5.436;2022-08-19T11:24:57;101357.47;;;21.35;70.03
73981;BME280;62348;51.412;5.436;2022-08-19T11:27:23;101355.38;;;21.41;69.04
73981;BME280;62348;51.412;5.436;2022-08-19T11:29:48;101347.66;;;21.52;68.67
73981;BME280;62348;51.412;5.436;2022-08-19T11:32:13;101342.63;;;21.62;68.08
73981;BME280;62348;51.412;5.436;2022-08-19T11:34:40;101338.25;;;21.61;67.57
73981;BME280;62348;51.412;5.436;2022-08-19T11:37:06;101335.50;;;21.61;67.51
73981;BME280;62348;51.412;5.436;2022-08-19T11:39:35;101338.75;;;21.63;68.15
73981;BME280;62348;51.412;5.436;2022-08-19T11:42:04;101337.94;;;21.63;67.40
73981;BME280;62348;51.412;5.436;2022-08-19T11:44:50;101338.75;;;21.63;66.43
73981;BME280;62348;51.412;5.436;2022-08-19T11:47:16;101330.50;;;21.63;66.48
73981;BME280;62348;51.412;5.436;2022-08-19T11:49:41;101332.94;;;21.65;66.87
73981;BME280;62348;51.412;5.436;2022-08-19T11:52:07;101333.56;;;21.71;67.03
73981;BME280;62348;51.412;5.436;2022-08-19T11:54:33;101330.81;;;21.71;67.27
73981;BME280;62348;51.412;5.436;2022-08-19T11:56:58;101328.06;;;21.71;67.46
73981;BME280;62348;51.412;5.436;2022-08-19T11:59:24;101334.38;;;21.71;67.35
73981;BME280;62348;51.412;5.436;2022-08-19T12:01:51;101333.41;;;21.67;66.92
73981;BME280;62348;51.412;5.436;2022-08-19T12:04:17;101334.69;;;21.70;68.01
73981;BME280;62348;51.412;5.436;2022-08-19T12:06:42;101339.72;;;21.68;67.95
73981;BME280;62348;51.412;5.436;2022-08-19T12:09:09;101341.50;;;21.72;68.15
73981;BME280;62348;51.412;5.436;2022-08-19T12:11:35;101349.09;;;21.84;67.18
73981;BME280;62348;51.412;5.436;2022-08-19T12:14:02;101346.34;;;21.84;67.49
73981;BME280;62348;51.412;5.436;2022-08-19T12:16:29;101354.28;;;21.86;67.25
73981;BME280;62348;51.412;5.436;2022-08-19T12:18:56;101352.31;;;21.77;67.08
73981;BME280;62348;51.412;5.436;2022-08-19T12:21:25;101344.75;;;21.74;67.90
73981;BME280;62348;51.412;5.436;2022-08-19T12:23:52;101354.91;;;21.74;68.02
73981;BME280;62348;51.412;5.436;2022-08-19T12:26:18;101348.59;;;21.73;68.01
73981;BME280;62348;51.412;5.436;2022-08-19T12:28:43;101340.38;;;21.82;68.14
73981;BME280;62348;51.412;5.436;2022-08-19T12:31:09;101336.13;;;21.84;67.03
73981;BME280;62348;51.412;5.436;2022-08-19T12:33:38;101343.91;;;21.91;67.86
73981;BME280;62348;51.412;5.436;2022-08-19T12:36:06;101338.91;;;21.93;68.29
73981;BME280;62348;51.412;5.436;2022-08-19T12:38:33;101338.22;;;21.96;68.58
73981;BME280;62348;51.412;5.436;2022-08-19T12:40:59;101330.44;;;21.98;68.96
73981;BME280;62348;51.412;5.436;2022-08-19T12:43:25;101326.25;;;22.01;68.22
73981;BME280;62348;51.412;5.436;2022-08-19T12:45:50;101338.06;;;22.01;68.88
73981;BME280;62348;51.412;5.436;2022-08-19T12:48:16;101334.84;;;21.99;67.99
73981;BME280;62348;51.412;5.436;2022-08-19T12:50:44;101337.75;;;22.03;68.88
73981;BME280;62348;51.412;5.436;2022-08-19T12:53:11;101329.00;;;22.01;68.48
73981;BME280;62348;51.412;5.436;2022-08-19T12:55:36;101326.53;;;22.08;68.90
73981;BME280;62348;51.412;5.436;2022-08-19T12:58:02;101328.47;;;22.16;67.59
73981;BME280;62348;51.412;5.436;2022-08-19T13:00:28;101325.72;;;22.16;67.56